Time;durP1;ratioP1;P1;durP2;ratioP2;P2;SDS_P1;SDS_P2;PMS_P1;PMS_P2;Temp;Humidity;BMP_temperature;BMP_pressure;BME280_temperature;BME280_humidity;BME280_pressure;Samples;Min_cycle;Max_cycle;Signal;HPM_P1;HPM_P2
2022/07/28 00:02:04;;;;;;;3.57;3.10;;;24.80;62.30;;;;;;4992931;28;20450;-72
2022/07/28 00:04:33;;;;;;;3.15;2.85;;;24.80;62.30;;;;;;4992555;28;20417;-72
2022/07/28 00:07:00;;;;;;;3.35;2.83;;;24.70;62.30;;;;;;4993031;28;20402;-72
2022/07/28 00:09:26;;;;;;;2.95;2.70;;;24.80;62.30;;;;;;4992850;28;20391;-72
2022/07/28 00:11:52;;;;;;;3.40;3.10;;;24.70;62.30;;;;;;4992768;28;20437;-71
2022/07/28 00:14:17;;;;;;;3.40;3.10;;;24.80;62.20;;;;;;4992963;28;20480;-72
2022/07/28 00:16:43;;;;;;;3.57;3.27;;;24.80;62.30;;;;;;4992248;28;20390;-72
2022/07/28 00:19:08;;;;;;;3.25;2.95;;;24.80;62.20;;;;;;4992630;28;20545;-72
2022/07/28 00:21:34;;;;;;;3.50;3.20;;;24.80;62.30;;;;;;4991316;28;20415;-72
2022/07/28 00:24:00;;;;;;;3.35;3.05;;;24.70;62.20;;;;;;4992600;28;20401;-72
2022/07/28 00:26:25;;;;;;;3.45;3.15;;;24.70;62.30;;;;;;4992388;28;20410;-72
2022/07/28 00:28:51;;;;;;;3.33;3.03;;;24.70;62.20;;;;;;4992013;28;20975;-72
2022/07/28 00:31:17;;;;;;;4.13;3.33;;;24.70;62.30;;;;;;4992484;28;20409;-72
2022/07/28 00:33:43;;;;;;;3.47;3.17;;;24.80;62.30;;;;;;4992664;28;20793;-72
2022/07/28 00:36:09;;;;;;;3.25;2.95;;;24.70;62.20;;;;;;4991571;28;20397;-72
2022/07/28 00:38:35;;;;;;;3.80;3.40;;;24.80;62.20;;;;;;4989081;28;20481;-73
2022/07/28 00:41:10;;;;;;;3.10;2.80;;;24.70;62.10;;;;;;4992183;28;20568;-72
2022/07/28 00:43:40;;;;;;;3.63;3.13;;;24.70;62.10;;;;;;4989818;28;20864;-72
2022/07/28 00:46:07;;;;;;;3.50;3.20;;;24.70;62.10;;;;;;4992283;28;20399;-72
2022/07/28 00:48:35;;;;;;;3.30;3.00;;;24.70;62.00;;;;;;4991829;28;20409;-72
2022/07/28 00:51:01;;;;;;;3.30;3.00;;;24.70;62.00;;;;;;4992068;28;20394;-72
2022/07/28 00:53:28;;;;;;;3.67;3.00;;;24.70;62.10;;;;;;4990981;28;20464;-72
2022/07/28 00:55:53;;;;;;;3.47;3.10;;;24.70;62.00;;;;;;4992088;28;20407;-72
2022/07/28 00:58:19;;;;;;;3.28;2.97;;;24.70;62.10;;;;;;4991723;28;20405;-72
2022/07/28 01:00:45;;;;;;;3.63;3.20;;;24.70;62.10;;;;;;4991224;28;20924;-72
2022/07/28 01:03:10;;;;;;;3.78;3.20;;;24.70;62.00;;;;;;4990554;28;20434;-72
2022/07/28 01:05:52;;;;;;;3.17;2.83;;;24.70;62.00;;;;;;4990580;28;20453;-72
2022/07/28 01:08:54;;;;;;;3.63;3.25;;;24.70;62.00;;;;;;4989500;28;20943;-72
2022/07/28 01:11:31;;;;;;;3.10;2.80;;;24.70;61.90;;;;;;4987218;28;20415;-72
2022/07/28 01:13:59;;;;;;;3.40;3.10;;;24.70;62.00;;;;;;4987945;28;20406;-72
2022/07/28 01:16:26;;;;;;;3.55;3.10;;;24.70;61.90;;;;;;4990426;28;20405;-72
2022/07/28 01:19:08;;;;;;;3.55;3.00;;;24.70;62.10;;;;;;4989352;28;20530;-72
2022/07/28 01:21:36;;;;;;;3.40;3.10;;;24.70;62.00;;;;;;4990244;28;20418;-72
2022/07/28 01:24:17;;;;;;;3.50;3.20;;;24.70;61.90;;;;;;4990241;28;20395;-72
2022/07/28 01:26:53;;;;;;;3.40;3.10;;;24.70;62.00;;;;;;4986783;28;20414;-72
2022/07/28 01:29:48;;;;;;;3.55;3.25;;;24.70;62.00;;;;;;4988088;28;20405;-72
2022/07/28 01:32:44;;;;;;;3.55;2.90;;;24.70;61.90;;;;;;4973811;28;20419;-72
2022/07/28 01:35:30;;;;;;;3.67;2.80;;;24.70;62.00;;;;;;4990688;28;20398;-72
2022/07/28 01:38:02;;;;;;;3.67;3.38;;;24.70;62.00;;;;;;4986119;28;20959;-72
2022/07/28 01:40:32;;;;;;;3.53;3.10;;;24.70;61.80;;;;;;4990419;28;20434;-72
2022/07/28 01:43:00;;;;;;;3.55;3.10;;;24.60;61.80;;;;;;4990956;28;20403;-72
2022/07/28 01:45:27;;;;;;;3.38;3.08;;;24.70;62.10;;;;;;4990957;28;20485;-72
2022/07/28 01:47:55;;;;;;;3.58;3.28;;;24.70;61.80;;;;;;4990255;28;20414;-72
2022/07/28 01:50:24;;;;;;;3.20;2.90;;;24.70;61.90;;;;;;4990903;28;20402;-71
2022/07/28 01:52:52;;;;;;;3.15;2.85;;;24.70;61.80;;;;;;4990475;28;20437;-72
2022/07/28 01:55:21;;;;;;;3.00;2.70;;;24.60;61.80;;;;;;4992072;28;20402;-72
2022/07/28 01:57:48;;;;;;;3.30;2.90;;;24.70;61.80;;;;;;4990760;28;20413;-72
2022/07/28 02:00:15;;;;;;;3.20;2.90;;;24.60;61.80;;;;;;4991856;28;20505;-72
2022/07/28 02:02:46;;;;;;;3.00;2.70;;;24.60;61.80;;;;;;4990180;28;20390;-71
2022/07/28 02:05:15;;;;;;;3.17;2.88;;;24.60;61.70;;;;;;4991914;28;20409;-72
2022/07/28 02:07:43;;;;;;;3.17;2.88;;;24.60;61.70;;;;;;4991883;28;20391;-72
2022/07/28 02:10:13;;;;;;;3.10;2.80;;;24.60;61.80;;;;;;4992411;28;20410;-72
2022/07/28 02:12:40;;;;;;;3.37;3.00;;;24.60;61.70;;;;;;4992029;28;20925;-72
2022/07/28 02:15:10;;;;;;;3.03;2.83;;;24.60;61.70;;;;;;5007505;28;20461;-72
2022/07/28 02:17:40;;;;;;;3.63;3.00;;;24.60;61.70;;;;;;4992343;28;20387;-72
2022/07/28 02:20:09;;;;;;;3.25;2.95;;;24.60;61.60;;;;;;5007329;28;20480;-72
2022/07/28 02:22:37;;;;;;;3.30;3.00;;;24.60;61.60;;;;;;5006977;28;20402;-72
2022/07/28 02:25:04;;;;;;;3.30;3.00;;;24.60;61.60;;;;;;4991940;28;20927;-72
2022/07/28 02:27:40;;;;;;;3.95;3.22;;;24.60;61.70;;;;;;4992019;28;20760;-72
2022/07/28 02:30:13;;;;;;;3.45;3.15;;;24.60;61.60;;;;;;4992262;28;20386;-72
2022/07/28 02:32:52;;;;;;;3.47;3.00;;;24.60;61.60;;;;;;5006965;28;20402;-72
2022/07/28 02:35:50;;;;;;;3.40;3.10;;;24.60;61.70;;;;;;4992240;28;20485;-72
2022/07/28 02:38:23;;;;;;;3.30;3.00;;;24.60;61.70;;;;;;4992088;28;20397;-72
2022/07/28 02:40:53;;;;;;;3.60;3.30;;;24.60;61.70;;;;;;4991486;28;20421;-72
2022/07/28 02:43:25;;;;;;;3.45;3.15;;;24.60;61.60;;;;;;5007138;28;20402;-72
2022/07/28 02:45:54;;;;;;;3.40;3.10;;;24.60;61.60;;;;;;4992032;28;20429;-72
2022/07/28 02:48:25;;;;;;;3.20;2.90;;;24.60;61.50;;;;;;4992037;28;20418;-72
2022/07/28 02:50:53;;;;;;;3.47;3.17;;;24.60;61.50;;;;;;4991573;28;20395;-72
2022/07/28 02:53:21;;;;;;;2.92;2.50;;;24.60;61.50;;;;;;5007031;28;20393;-72
2022/07/28 02:55:48;;;;;;;3.38;3.08;;;24.60;61.50;;;;;;4991957;28;20445;-72
2022/07/28 02:58:20;;;;;;;3.47;3.17;;;24.60;61.50;;;;;;4991984;28;20498;-72
2022/07/28 03:00:51;;;;;;;3.40;3.00;;;24.60;61.50;;;;;;5008738;28;20430;-72
2022/07/28 03:03:18;;;;;;;3.45;3.00;;;24.60;61.40;;;;;;4995921;28;20896;-72
2022/07/28 03:05:44;;;;;;;3.60;3.30;;;24.60;61.50;;;;;;4995886;28;20407;-71
2022/07/28 03:08:11;;;;;;;3.75;2.88;;;24.60;61.40;;;;;;4995768;28;20420;-71
2022/07/28 03:10:36;;;;;;;3.10;2.75;;;24.60;62.10;;;;;;4995524;28;20398;-71
2022/07/28 03:13:06;;;;;;;4.27;3.07;;;24.60;62.00;;;;;;4995516;28;20529;-71
2022/07/28 03:15:32;;;;;;;3.55;3.05;;;24.60;62.40;;;;;;5010628;28;20489;-72
2022/07/28 03:18:02;;;;;;;3.70;3.10;;;24.60;63.00;;;;;;4995689;28;20787;-72
2022/07/28 03:20:29;;;;;;;6.32;3.30;;;24.70;63.00;;;;;;4995490;28;20887;-72
2022/07/28 03:22:55;;;;;;;4.70;3.22;;;24.70;63.10;;;;;;4995158;28;20389;-72
2022/07/28 03:25:40;;;;;;;7.10;3.38;;;24.70;63.70;;;;;;4994239;28;20398;-72
2022/07/28 03:28:11;;;;;;;4.20;2.78;;;24.70;64.20;;;;;;5010334;28;20410;-72
2022/07/28 03:30:44;;;;;;;6.45;3.17;;;24.80;63.80;;;;;;4995325;28;20474;-72
2022/07/28 03:33:11;;;;;;;4.73;3.20;;;24.80;64.10;;;;;;4995260;28;20901;-70
2022/07/28 03:35:40;;;;;;;6.03;3.35;;;24.80;63.90;;;;;;4995017;28;20752;-70
2022/07/28 03:38:14;;;;;;;3.78;3.08;;;24.80;64.30;;;;;;5010069;28;20395;-71
2022/07/28 03:40:41;;;;;;;5.20;3.13;;;24.90;64.60;;;;;;4994753;28;20433;-71
2022/07/28 03:43:12;;;;;;;5.70;3.17;;;24.90;64.20;;;;;;5009885;28;20398;-70
2022/07/28 03:45:40;;;;;;;6.88;3.05;;;24.90;64.20;;;;;;4993598;28;20410;-70
2022/07/28 03:48:06;;;;;;;5.65;3.20;;;24.90;64.20;;;;;;4992618;28;20886;-70
2022/07/28 03:50:33;;;;;;;4.28;2.90;;;24.90;63.90;;;;;;4994435;28;20407;-71
2022/07/28 03:53:01;;;;;;;4.15;2.88;;;24.90;63.80;;;;;;5009094;28;20418;-70
2022/07/28 03:55:27;;;;;;;5.60;3.20;;;24.90;63.50;;;;;;4994795;28;20804;-70
2022/07/28 03:57:53;;;;;;;3.45;2.78;;;24.90;63.20;;;;;;4993522;28;20977;-71
2022/07/28 04:00:20;;;;;;;3.43;3.13;;;25.00;63.10;;;;;;5009769;28;20791;-70
2022/07/28 04:02:46;;;;;;;4.15;2.90;;;24.90;62.50;;;;;;5008946;28;20398;-70
2022/07/28 04:05:17;;;;;;;3.63;3.00;;;24.90;63.00;;;;;;5009416;28;20742;-70
2022/07/28 04:07:43;;;;;;;4.70;2.95;;;24.80;62.40;;;;;;4994151;28;20425;-70
2022/07/28 04:10:12;;;;;;;4.60;3.10;;;24.80;62.40;;;;;;4994158;28;20387;-71
2022/07/28 04:12:56;;;;;;;5.10;3.22;;;24.80;62.50;;;;;;4994125;28;20409;-70
2022/07/28 04:15:23;;;;;;;3.78;2.92;;;24.70;62.50;;;;;;4994637;28;20398;-71
2022/07/28 04:17:50;;;;;;;3.80;3.10;;;24.80;62.50;;;;;;4992653;28;20398;-71
2022/07/28 04:20:17;;;;;;;4.65;3.30;;;24.80;62.30;;;;;;4993940;28;20426;-71
2022/07/28 04:22:43;;;;;;;3.38;2.85;;;24.80;62.20;;;;;;4993830;28;20433;-70
2022/07/28 04:25:11;;;;;;;3.88;2.80;;;24.70;62.10;;;;;;4994067;28;20405;-70
2022/07/28 04:27:38;;;;;;;4.78;2.90;;;24.80;62.50;;;;;;4994117;28;20406;-70
2022/07/28 04:30:06;;;;;;;3.65;2.85;;;24.70;61.80;;;;;;4994244;28;20406;-71
2022/07/28 04:32:32;;;;;;;3.80;2.80;;;24.70;61.80;;;;;;4994141;28;20847;-71
2022/07/28 04:34:58;;;;;;;5.03;3.08;;;24.70;61.80;;;;;;4993676;28;20529;-71
2022/07/28 04:37:23;;;;;;;8.82;3.95;;;24.70;61.70;;;;;;4992941;28;20402;-70
2022/07/28 04:39:49;;;;;;;4.63;3.60;;;24.70;61.70;;;;;;4993691;28;20899;-70
2022/07/28 04:42:17;;;;;;;5.90;3.78;;;24.70;61.30;;;;;;4993921;28;20873;-70
2022/07/28 04:44:44;;;;;;;6.90;3.80;;;24.70;61.20;;;;;;4993681;28;20393;-70
2022/07/28 04:47:12;;;;;;;5.60;4.07;;;24.70;61.20;;;;;;4993767;28;20439;-71
2022/07/28 04:49:38;;;;;;;6.53;4.00;;;24.70;61.00;;;;;;4993826;28;20398;-70
2022/07/28 04:52:04;;;;;;;5.60;4.13;;;24.60;60.90;;;;;;4988773;28;20876;-70
2022/07/28 04:54:30;;;;;;;6.57;3.83;;;24.60;60.40;;;;;;4993607;28;20421;-69
2022/07/28 04:56:55;;;;;;;6.00;4.10;;;24.60;60.20;;;;;;4991938;28;20885;-69
2022/07/28 04:59:21;;;;;;;6.57;4.10;;;24.60;59.90;;;;;;4993128;28;20812;-69
2022/07/28 05:01:47;;;;;;;5.25;4.05;;;24.60;59.80;;;;;;4993573;28;20430;-69
2022/07/28 05:04:12;;;;;;;8.40;4.63;;;24.60;59.60;;;;;;4992020;28;20490;-69
2022/07/28 05:06:38;;;;;;;7.17;4.53;;;24.50;59.70;;;;;;4993410;28;20470;-69
2022/07/28 05:09:04;;;;;;;9.00;4.70;;;24.50;59.20;;;;;;4993092;28;20395;-70
2022/07/28 05:11:29;;;;;;;5.60;4.43;;;24.50;59.20;;;;;;4992455;28;20876;-70
2022/07/28 05:13:55;;;;;;;5.65;4.63;;;24.50;59.00;;;;;;4992995;28;20398;-70
2022/07/28 05:16:21;;;;;;;6.03;4.50;;;24.50;59.30;;;;;;4991957;28;20417;-70
2022/07/28 05:18:47;;;;;;;5.45;4.22;;;24.40;59.20;;;;;;4993056;28;20377;-70
2022/07/28 05:21:12;;;;;;;6.10;4.30;;;24.40;59.30;;;;;;4992800;28;20468;-69
2022/07/28 05:23:38;;;;;;;6.07;4.27;;;24.40;59.40;;;;;;4992390;28;20418;-69
2022/07/28 05:26:05;;;;;;;7.07;4.68;;;24.40;59.30;;;;;;4993075;28;20868;-69
2022/07/28 05:28:32;;;;;;;5.70;4.50;;;24.40;59.30;;;;;;4992973;28;20406;-69
2022/07/28 05:30:57;;;;;;;6.28;4.93;;;24.40;59.30;;;;;;4992601;28;20403;-69
2022/07/28 05:33:23;;;;;;;6.10;4.60;;;24.40;59.30;;;;;;4992847;28;20420;-69
2022/07/28 05:35:53;;;;;;;7.38;4.72;;;24.40;59.30;;;;;;4992821;28;20410;-69
2022/07/28 05:38:18;;;;;;;7.53;5.30;;;24.40;59.30;;;;;;4992869;28;20395;-69
2022/07/28 05:40:46;;;;;;;9.27;5.70;;;24.40;59.30;;;;;;4992320;28;20436;-69
2022/07/28 05:43:11;;;;;;;7.10;5.45;;;24.40;59.30;;;;;;4991187;28;21055;-70
2022/07/28 05:45:37;;;;;;;8.07;5.77;;;24.40;59.40;;;;;;4992598;28;20414;-69
2022/07/28 05:48:03;;;;;;;8.03;5.80;;;24.40;59.30;;;;;;4992613;28;20398;-69
2022/07/28 05:50:28;;;;;;;9.60;6.45;;;24.40;60.00;;;;;;4991093;28;20442;-69
2022/07/28 05:52:54;;;;;;;8.70;5.70;;;24.30;59.50;;;;;;4991985;28;20387;-69
2022/07/28 05:55:20;;;;;;;7.55;5.47;;;24.40;59.60;;;;;;4991272;28;20403;-69
2022/07/28 05:57:46;;;;;;;7.82;5.45;;;24.30;59.50;;;;;;4992190;28;20750;-69
2022/07/28 06:00:18;;;;;;;8.20;5.63;;;24.30;59.40;;;;;;4992395;28;20548;-71
2022/07/28 06:02:44;;;;;;;10.05;5.20;;;24.30;59.60;;;;;;4991268;28;20403;-71
2022/07/28 06:05:11;;;;;;;9.75;4.95;;;24.30;59.20;;;;;;4990777;28;20897;-70
2022/07/28 06:07:36;;;;;;;6.47;4.88;;;24.30;59.10;;;;;;4991033;28;20458;-70
2022/07/28 06:10:03;;;;;;;7.70;4.65;;;24.30;59.20;;;;;;4992475;28;20386;-71
2022/07/28 06:12:29;;;;;;;6.60;4.40;;;24.30;59.30;;;;;;4991086;28;20468;-71
2022/07/28 06:14:54;;;;;;;6.03;4.73;;;24.30;59.30;;;;;;4990517;28;20422;-70
2022/07/28 06:17:20;;;;;;;6.70;4.55;;;24.30;59.40;;;;;;4990814;28;20426;-70
2022/07/28 06:19:46;;;;;;;6.40;4.40;;;24.30;59.70;;;;;;4992172;28;20423;-70
2022/07/28 06:22:14;;;;;;;5.55;3.90;;;24.30;59.60;;;;;;4992018;28;20443;-71
2022/07/28 06:24:40;;;;;;;5.10;4.18;;;24.30;59.70;;;;;;4992198;28;20433;-71
2022/07/28 06:27:05;;;;;;;4.72;3.95;;;24.30;59.70;;;;;;4990334;28;20402;-70
2022/07/28 06:29:31;;;;;;;6.13;4.37;;;24.30;59.60;;;;;;4992133;28;20395;-70
2022/07/28 06:31:57;;;;;;;6.55;4.20;;;24.30;60.00;;;;;;4992102;28;20386;-70
2022/07/28 06:34:22;;;;;;;5.60;4.33;;;24.30;59.70;;;;;;4990487;28;20438;-70
2022/07/28 06:36:48;;;;;;;6.95;4.45;;;24.30;59.50;;;;;;4990370;28;20401;-70
2022/07/28 06:39:14;;;;;;;6.28;4.00;;;24.40;59.50;;;;;;4991561;28;20402;-70
2022/07/28 06:41:42;;;;;;;5.27;4.10;;;24.40;59.60;;;;;;4991608;28;20485;-70
2022/07/28 06:44:10;;;;;;;5.75;3.90;;;24.40;59.50;;;;;;4991919;28;20776;-70
2022/07/28 06:46:36;;;;;;;6.43;4.30;;;24.40;59.70;;;;;;4991885;28;20542;-70
2022/07/28 06:49:03;;;;;;;5.97;4.13;;;24.40;59.40;;;;;;4990248;28;20403;-70
2022/07/28 06:51:30;;;;;;;5.68;4.15;;;24.40;59.30;;;;;;4991888;28;20962;-70
2022/07/28 06:53:56;;;;;;;5.18;4.00;;;24.40;59.30;;;;;;4990609;28;20398;-70
2022/07/28 06:56:22;;;;;;;5.35;4.28;;;24.40;59.30;;;;;;4991974;28;20485;-71
2022/07/28 06:58:48;;;;;;;4.63;3.70;;;24.40;59.30;;;;;;4990606;28;20533;-70
2022/07/28 07:01:14;;;;;;;6.07;4.40;;;24.40;59.30;;;;;;4991305;28;20425;-70
2022/07/28 07:03:41;;;;;;;5.70;4.03;;;24.40;59.40;;;;;;4991839;28;20386;-71
2022/07/28 07:06:07;;;;;;;5.32;4.50;;;24.40;59.40;;;;;;4991627;28;20907;-70
2022/07/28 07:08:33;;;;;;;5.30;4.25;;;24.50;60.10;;;;;;4991807;28;20894;-72
2022/07/28 07:10:59;;;;;;;6.30;4.80;;;24.50;60.70;;;;;;4991229;28;20398;-70
2022/07/28 07:13:25;;;;;;;7.05;4.57;;;24.50;60.80;;;;;;4989842;28;20746;-71
2022/07/28 07:15:50;;;;;;;5.50;4.10;;;24.50;63.10;;;;;;4991614;28;20441;-71
2022/07/28 07:18:16;;;;;;;5.17;4.23;;;24.60;63.10;;;;;;4991499;28;20524;-70
2022/07/28 07:20:42;;;;;;;5.90;4.10;;;24.60;62.70;;;;;;4991397;28;20413;-71
2022/07/28 07:23:07;;;;;;;6.23;4.27;;;24.60;62.40;;;;;;4989954;28;20428;-70
2022/07/28 07:25:33;;;;;;;5.50;4.30;;;24.70;62.60;;;;;;4991623;28;20402;-71
2022/07/28 07:27:59;;;;;;;6.32;4.38;;;24.70;62.50;;;;;;4991263;28;20781;-71
2022/07/28 07:30:25;;;;;;;6.63;4.47;;;24.70;62.60;;;;;;4991708;28;20406;-70
2022/07/28 07:32:51;;;;;;;7.82;5.25;;;24.70;63.20;;;;;;4991587;28;20391;-70
2022/07/28 07:35:17;;;;;;;9.40;5.15;;;24.60;62.70;;;;;;4991378;28;20411;-72
2022/07/28 07:37:43;;;;;;;10.38;5.55;;;24.60;62.70;;;;;;4991618;28;20398;-69
2022/07/28 07:40:09;;;;;;;8.40;5.00;;;24.70;62.70;;;;;;4991515;28;20449;-70
2022/07/28 07:42:35;;;;;;;7.10;4.53;;;24.60;62.20;;;;;;4991511;28;20390;-70
2022/07/28 07:45:01;;;;;;;6.95;4.55;;;24.70;62.40;;;;;;4990961;28;20394;-70
2022/07/28 07:47:26;;;;;;;6.35;4.40;;;24.70;62.40;;;;;;4994618;28;20999;-70
2022/07/28 07:49:52;;;;;;;7.88;4.68;;;24.80;62.50;;;;;;4994928;28;20398;-70
2022/07/28 07:52:18;;;;;;;6.72;4.45;;;24.80;62.40;;;;;;4995105;28;20865;-70
2022/07/28 07:54:44;;;;;;;7.97;4.40;;;24.80;62.60;;;;;;4994953;28;20386;-70
2022/07/28 07:57:10;;;;;;;5.63;4.22;;;24.80;62.60;;;;;;4994322;28;20402;-71
2022/07/28 07:59:35;;;;;;;6.32;3.97;;;24.80;62.60;;;;;;4994747;28;20413;-70
2022/07/28 08:02:01;;;;;;;5.30;4.30;;;24.80;62.50;;;;;;4995015;28;20444;-70
2022/07/28 08:04:27;;;;;;;6.93;4.20;;;24.80;62.50;;;;;;4989085;28;20394;-70
2022/07/28 08:06:53;;;;;;;5.82;3.90;;;24.80;62.40;;;;;;4994434;28;20481;-71
2022/07/28 08:09:19;;;;;;;5.65;4.05;;;24.80;62.40;;;;;;4994777;28;20391;-70
2022/07/28 08:11:45;;;;;;;5.88;4.03;;;24.80;62.40;;;;;;4993732;28;20395;-71
2022/07/28 08:14:11;;;;;;;6.57;4.37;;;24.80;62.40;;;;;;4994250;28;20865;-70
2022/07/28 08:16:36;;;;;;;6.50;3.80;;;24.80;62.30;;;;;;4993985;28;20888;-70
2022/07/28 08:19:02;;;;;;;5.43;3.60;;;24.70;62.20;;;;;;4993674;28;20489;-69
2022/07/28 08:21:28;;;;;;;5.60;4.05;;;24.80;62.20;;;;;;4994088;28;20469;-70
2022/07/28 08:23:54;;;;;;;5.55;4.18;;;24.80;62.10;;;;;;4994053;28;20390;-70
2022/07/28 08:26:24;;;;;;;5.97;4.10;;;24.80;62.10;;;;;;4992395;28;20481;-70
2022/07/28 08:28:51;;;;;;;5.68;3.67;;;24.80;62.00;;;;;;4993716;28;20749;-70
2022/07/28 08:31:20;;;;;;;4.70;3.70;;;24.80;62.00;;;;;;4993798;28;20402;-71
2022/07/28 08:33:47;;;;;;;4.38;3.80;;;24.80;62.00;;;;;;4993168;28;20434;-69
2022/07/28 08:36:13;;;;;;;5.57;3.95;;;24.80;61.90;;;;;;4994151;28;20394;-70
2022/07/28 08:38:39;;;;;;;5.28;3.92;;;24.80;62.00;;;;;;4993838;28;20878;-70
2022/07/28 08:41:11;;;;;;;4.30;3.40;;;24.80;61.90;;;;;;4992933;28;20429;-70
2022/07/28 08:43:41;;;;;;;4.65;3.65;;;24.80;61.80;;;;;;4993224;28;20398;-70
2022/07/28 08:46:07;;;;;;;4.30;3.90;;;24.80;61.80;;;;;;4993790;28;20769;-70
2022/07/28 08:48:35;;;;;;;4.53;3.92;;;24.80;61.80;;;;;;4993480;28;20394;-70
2022/07/28 08:51:06;;;;;;;4.57;3.67;;;24.80;61.80;;;;;;4993094;28;20400;-70
2022/07/28 08:53:35;;;;;;;5.80;3.97;;;24.80;61.80;;;;;;4993662;28;20490;-70
2022/07/28 08:56:04;;;;;;;5.13;4.05;;;24.80;61.60;;;;;;4993408;28;20422;-70
2022/07/28 08:58:32;;;;;;;4.38;3.63;;;24.80;61.70;;;;;;4992306;28;20406;-70
2022/07/28 09:00:58;;;;;;;4.25;3.85;;;24.80;61.60;;;;;;4991778;28;20480;-70
2022/07/28 09:03:25;;;;;;;4.32;3.65;;;24.80;61.60;;;;;;4991960;28;20394;-70
2022/07/28 09:05:51;;;;;;;4.70;4.18;;;24.80;61.60;;;;;;4992015;28;20405;-69
2022/07/28 09:08:18;;;;;;;4.60;4.10;;;24.80;61.70;;;;;;4992062;28;20406;-70
2022/07/28 09:10:44;;;;;;;4.25;3.80;;;24.80;61.60;;;;;;4993166;28;20485;-70
2022/07/28 09:13:10;;;;;;;4.07;3.67;;;24.80;61.50;;;;;;4992707;28;20518;-69
2022/07/28 09:15:36;;;;;;;4.88;3.85;;;24.80;61.60;;;;;;4993189;28;20431;-69
2022/07/28 09:18:02;;;;;;;4.43;3.53;;;24.80;61.70;;;;;;4993131;28;20478;-70
2022/07/28 09:20:28;;;;;;;4.25;3.85;;;24.80;61.50;;;;;;4992924;28;20900;-70
2022/07/28 09:22:57;;;;;;;4.53;3.97;;;24.80;61.70;;;;;;4993009;28;20395;-70
2022/07/28 09:25:23;;;;;;;4.60;4.10;;;24.80;61.40;;;;;;4992801;28;20398;-70
2022/07/28 09:27:50;;;;;;;4.88;4.38;;;24.90;61.50;;;;;;4992739;28;20758;-69
2022/07/28 09:30:30;;;;;;;4.60;4.10;;;24.90;61.40;;;;;;4992948;28;20975;-69
2022/07/28 09:33:24;;;;;;;4.70;4.30;;;24.90;61.40;;;;;;4991593;28;20745;-69
2022/07/28 09:35:55;;;;;;;4.85;4.43;;;24.80;61.30;;;;;;4991429;28;20422;-70
2022/07/28 09:38:23;;;;;;;5.18;4.20;;;24.80;61.30;;;;;;4992609;28;20394;-70
2022/07/28 09:41:05;;;;;;;4.55;4.00;;;24.90;61.40;;;;;;4991531;28;20414;-69
2022/07/28 09:43:43;;;;;;;4.67;4.23;;;24.90;61.40;;;;;;4992663;28;20400;-70
2022/07/28 09:46:12;;;;;;;4.67;4.17;;;24.90;61.30;;;;;;4990668;28;20488;-70
2022/07/28 09:48:50;;;;;;;4.85;4.35;;;24.90;61.30;;;;;;4992389;28;20379;-70
2022/07/28 09:51:17;;;;;;;4.90;4.40;;;24.90;61.30;;;;;;4991314;28;20923;-70
2022/07/28 09:53:43;;;;;;;4.85;4.32;;;24.90;61.30;;;;;;4990967;28;20510;-70
2022/07/28 09:56:10;;;;;;;4.50;4.10;;;24.80;61.20;;;;;;4992330;28;20434;-71
2022/07/28 09:58:37;;;;;;;5.47;4.35;;;24.90;61.30;;;;;;4991281;28;20398;-70
2022/07/28 10:01:04;;;;;;;5.30;4.60;;;24.90;61.70;;;;;;4993593;28;20421;-71
2022/07/28 10:03:29;;;;;;;5.82;4.22;;;24.90;62.40;;;;;;4991254;28;20394;-70
2022/07/28 10:05:57;;;;;;;5.72;4.22;;;24.90;62.40;;;;;;4990833;28;20409;-70
2022/07/28 10:09:00;;;;;;;6.40;4.22;;;24.90;62.30;;;;;;4992294;28;20386;-70
2022/07/28 10:11:27;;;;;;;5.35;4.35;;;25.00;62.50;;;;;;4967040;28;20420;-71
2022/07/28 10:14:02;;;;;;;5.25;3.90;;;25.00;62.50;;;;;;4969899;28;20396;-70
2022/07/28 10:16:42;;;;;;;4.80;4.35;;;25.00;62.40;;;;;;4967107;28;20479;-70
2022/07/28 10:19:08;;;;;;;6.22;4.70;;;25.00;62.20;;;;;;4976338;28;20399;-70
2022/07/28 10:21:40;;;;;;;5.40;4.03;;;25.00;62.20;;;;;;4989834;28;20422;-71
2022/07/28 10:24:07;;;;;;;5.22;4.38;;;25.00;62.20;;;;;;4989864;28;20826;-70
2022/07/28 10:26:43;;;;;;;5.03;4.30;;;25.00;62.30;;;;;;4989645;28;20406;-71
2022/07/28 10:29:14;;;;;;;5.18;4.18;;;25.00;62.30;;;;;;4988456;28;20448;-70
2022/07/28 10:31:52;;;;;;;5.25;4.10;;;25.00;62.30;;;;;;4990911;28;21053;-70
2022/07/28 10:34:26;;;;;;;4.60;4.20;;;25.00;62.30;;;;;;4988697;28;20409;-71
2022/07/28 10:36:54;;;;;;;4.17;3.77;;;25.10;62.30;;;;;;4989147;28;20395;-70
2022/07/28 10:39:24;;;;;;;4.43;4.03;;;25.00;62.20;;;;;;4989091;28;20402;-71
2022/07/28 10:41:50;;;;;;;4.93;4.00;;;25.00;62.40;;;;;;4983142;28;20510;-71
2022/07/28 10:44:18;;;;;;;4.93;4.43;;;25.10;62.80;;;;;;4989670;28;20401;-71
2022/07/28 10:46:45;;;;;;;5.20;4.32;;;25.10;62.90;;;;;;4989457;28;20502;-70
2022/07/28 10:49:13;;;;;;;4.85;4.25;;;25.10;62.80;;;;;;4989136;28;20402;-71
2022/07/28 10:51:45;;;;;;;4.53;4.13;;;25.10;62.70;;;;;;4990506;28;20441;-71
2022/07/28 10:54:28;;;;;;;5.00;4.20;;;25.10;62.70;;;;;;4989385;28;20426;-71
2022/07/28 10:57:00;;;;;;;5.05;4.55;;;25.10;62.60;;;;;;4989962;28;20398;-70
2022/07/28 10:59:35;;;;;;;4.80;4.30;;;25.10;62.60;;;;;;4988702;28;20411;-71
2022/07/28 11:02:01;;;;;;;4.45;4.05;;;25.10;62.60;;;;;;4988510;28;20449;-71
2022/07/28 11:04:46;;;;;;;4.57;4.17;;;25.10;62.60;;;;;;4989631;28;20391;-71
2022/07/28 11:07:14;;;;;;;4.55;4.15;;;25.10;62.60;;;;;;4987322;28;20421;-71
2022/07/28 11:09:40;;;;;;;4.88;4.45;;;25.10;62.20;;;;;;4991161;28;20402;-70
2022/07/28 11:12:06;;;;;;;5.22;3.97;;;25.10;62.30;;;;;;4991564;28;20390;-71
2022/07/28 11:14:36;;;;;;;4.47;4.07;;;25.10;62.20;;;;;;4991497;28;20402;-71
2022/07/28 11:17:05;;;;;;;4.87;4.40;;;25.10;62.10;;;;;;4990444;28;20395;-70
2022/07/28 11:19:43;;;;;;;6.18;4.20;;;25.10;62.10;;;;;;5006509;28;20399;-71
2022/07/28 11:22:15;;;;;;;6.88;4.20;;;25.10;62.00;;;;;;5009538;28;20406;-71
2022/07/28 11:24:57;;;;;;;7.65;4.70;;;25.10;61.90;;;;;;5010669;28;20438;-70
2022/07/28 11:27:41;;;;;;;4.70;4.30;;;25.10;61.70;;;;;;4994792;28;20406;-71
2022/07/28 11:30:27;;;;;;;4.85;4.20;;;25.20;61.80;;;;;;5010530;28;20402;-70
2022/07/28 11:32:56;;;;;;;4.55;4.00;;;25.20;61.80;;;;;;4995411;28;20391;-70
2022/07/28 11:35:26;;;;;;;5.60;4.20;;;25.20;61.80;;;;;;4993581;28;20395;-72
2022/07/28 11:38:01;;;;;;;4.95;4.15;;;25.20;61.80;;;;;;4994052;28;20398;-72
2022/07/28 11:40:36;;;;;;;4.72;4.22;;;25.10;62.10;;;;;;4995251;28;20418;-70
2022/07/28 11:43:21;;;;;;;4.70;4.25;;;25.20;62.40;;;;;;4993929;28;20883;-71
2022/07/28 11:45:48;;;;;;;4.68;4.13;;;25.20;62.90;;;;;;4994982;28;20394;-70
2022/07/28 11:48:13;;;;;;;5.68;4.20;;;25.30;62.90;;;;;;4995298;28;20429;-71
2022/07/28 11:50:40;;;;;;;5.50;4.40;;;25.30;62.40;;;;;;5010130;28;20756;-70
2022/07/28 11:53:06;;;;;;;4.50;4.10;;;25.30;62.30;;;;;;4994777;28;20391;-71
2022/07/28 11:55:32;;;;;;;5.33;4.33;;;25.30;62.50;;;;;;4993387;28;20946;-70
2022/07/28 11:58:01;;;;;;;5.00;4.50;;;25.30;62.00;;;;;;4995058;28;20796;-71
2022/07/28 12:00:28;;;;;;;5.50;4.20;;;25.30;61.90;;;;;;4991371;28;20442;-71
2022/07/28 12:02:55;;;;;;;5.25;4.47;;;25.30;62.10;;;;;;4992755;28;20981;-71
2022/07/28 12:05:21;;;;;;;6.25;4.18;;;25.30;62.30;;;;;;4993395;28;20403;-70
2022/07/28 12:07:51;;;;;;;5.13;4.10;;;25.30;62.10;;;;;;4991675;28;20780;-70
2022/07/28 12:10:36;;;;;;;6.50;4.20;;;25.30;61.90;;;;;;4992909;28;20955;-71
2022/07/28 12:13:06;;;;;;;10.10;4.33;;;25.30;61.80;;;;;;4986909;28;20406;-71
2022/07/28 12:15:33;;;;;;;5.43;4.32;;;25.30;61.80;;;;;;4990423;28;20395;-70
2022/07/28 12:17:59;;;;;;;8.20;4.00;;;25.30;61.60;;;;;;4993133;28;20409;-70
2022/07/28 12:20:30;;;;;;;8.50;4.10;;;25.30;61.50;;;;;;4990353;28;20473;-71
2022/07/28 12:22:59;;;;;;;5.95;4.30;;;25.30;61.40;;;;;;4989578;28;20401;-70
2022/07/28 12:25:25;;;;;;;7.65;4.68;;;25.30;61.30;;;;;;4987642;28;20423;-71
2022/07/28 12:27:51;;;;;;;5.38;4.45;;;25.40;61.30;;;;;;4992017;28;20410;-70
2022/07/28 12:30:22;;;;;;;6.57;4.40;;;25.30;61.30;;;;;;4991812;28;20398;-70
2022/07/28 12:32:48;;;;;;;5.15;4.10;;;25.30;61.20;;;;;;4988311;28;20389;-70
2022/07/28 12:35:14;;;;;;;5.25;4.20;;;25.30;61.20;;;;;;4991438;28;20410;-71
2022/07/28 12:37:42;;;;;;;4.93;4.43;;;25.30;61.70;;;;;;4991033;28;20426;-72
2022/07/28 12:40:11;;;;;;;5.53;4.30;;;25.30;61.10;;;;;;4991792;28;20422;-70
2022/07/28 12:42:37;;;;;;;5.60;4.32;;;25.30;61.00;;;;;;4991327;28;20414;-70
2022/07/28 12:45:04;;;;;;;5.75;4.32;;;25.40;61.10;;;;;;4992021;28;20984;-71
2022/07/28 12:47:30;;;;;;;5.18;4.50;;;25.40;61.20;;;;;;4991344;28;20402;-71
2022/07/28 12:50:25;;;;;;;5.15;4.40;;;25.40;61.10;;;;;;4991528;28;20433;-70
2022/07/28 12:53:06;;;;;;;5.00;4.30;;;25.40;61.00;;;;;;4983016;28;20402;-71
2022/07/28 12:55:33;;;;;;;4.60;4.20;;;25.40;61.00;;;;;;4989784;28;20390;-68